Impacts TAF Board
For situational awareness. Not to be used for flight planning purposes.
IDs:

KDEN - Denver Intl, CO, US

Issued at 0701 UTC 23 Oct 2018
Updated at 0712 UTC 23 Oct 2018
Potential Impact None Slight Moderate High
Time0653Z 23/08Z 23/09Z 23/10Z 23/11Z 23/12Z 23/13Z 23/14Z 23/15Z 23/16Z 23/17Z 23/18Z 23/19Z 23/20Z>>
Type OBS PRVL PRVL PRVL PRVL PRVL PRVL PRVL PRVL PRVL PRVL PRVL PRVL PRVL
VIS 10 >6 >6 >6 >6 >6 >6 >6 >6 >6 >6 >6 >6 >6
CIG 100 140 140 140 140 110 110 110 110 110 110 250 250 250
Cover BKN BKN BKN BKN BKN BKN BKN BKN BKN BKN BKN BKN BKN BKN
FltCat VFR VFR VFR VFR VFR VFR VFR VFR VFR VFR VFR VFR VFR VFR
WX -- -- -- -- -- -- -- -- -- -- -- -- -- --
WDir 190 200 200 200 200 180 180 180 180 180 180 160 160 160
WSpd 16 14 14 14 14 7 7 7 7 7 7 15 15 15
WGst -- -- -- -- -- -- -- -- -- -- -- 22 22 22
Raw TAF
KDEN 230701Z 2307/2412 20014KT P6SM FEW110 BKN140
  FM231200 18007KT P6SM SCT070 BKN110
  FM231800 16015G22KT P6SM SCT080 BKN250
  FM240200 19012KT P6SM VCSH OVC060


Raw METAR
KDEN 230653Z 19016KT 10SM BKN100 12/01 A3022 RMK AO2 SLP176 T01170006 402330067
KDEN 230553Z 18011KT 10SM BKN110 12/00 A3023 RMK AO2 SLP179 T01170000 10183 20100 50007
KDEN 230453Z 17011KT 10SM SCT120 BKN150 11/M01 A3023 RMK AO2 SLP188 T01061006

METAR Board
Radar Display
Forecast Discussion
For situational awareness. Not to be used for flight planning purposes.